Norman Park, Georgia
Current Conditions -  °F | °C
As of 2:35 AM on Monday 22 Dec 2014 (Local Time) from KMGR Reporting Station
Haze Haze  
Wind Chill: 52°   Ceiling: 100
Heat Index: 52°   Visibility: 1mi
Dew Point: 52°   Wind: 3mph
Humidity: 100%   Direction: 10°N
Pressure: 30.03"   Gusts: NA
Location:  31.27°N, 83.69°W
Report Text: KMGR 220735Z AUTO 01003KT 1SM BR OVC001 11/11 A3003 RMK AO2
Loading
Personal Weather Stations






























Interactive Weather Map New forecast layout! Learn more

10-Day Weather Forecast

Advertisements
Track Severe Weather on mobile